M I D A S
Marine Information and Data Acquisition System
Tripno 1155 of the Zeeleeuw from 2006-08-29 06:31:26 to 2006-08-29 13:58:49
Back to CruiseResearch ActivitiesStationsMapUnderway DataData graphs

EquipmentUnitsComment
TimeDGPSUTC
LatitudeDGPSDM.mWGS84
LongitudeDGPSDM.mWGS84
HeadingGyrodeg 
SOGDGPSknotsSpeed over ground
COGDGPSdegCourse over ground
DepthEcho soundermeters200 kHz
Missing or incorrect values are displayed as -999
Navigation data collected by the RV Zeeleeuw from 2006-08-29 06:30:03 to 2006-08-29 14:10:36
Time Latitude Longitude Heading SOG COG Depth
2006-08-29 06:31:08 51°13.613 2°56.032 116.8 2.8 294 -999
2006-08-29 06:32:08 51°13.639 2°55.959 130.5 3.4 306 -999
2006-08-29 06:33:09 51°13.676 2°55.886 128.5 3.5 307 -999
2006-08-29 06:34:09 51°13.707 2°55.803 113.5 3.7 295 -999
2006-08-29 06:35:08 51°13.721 2°55.727 97.3 2.4 279 -999
2006-08-29 06:36:08 51°13.728 2°55.723 54.9 1.4 42 11.5
2006-08-29 06:37:08 51°13.727 2°55.725 19.8 1 198 -999
2006-08-29 06:38:08 51°13.746 2°55.713 332.7 3.1 331 -999
2006-08-29 06:39:08 51°13.821 2°55.641 333.3 6.3 331 11.3
2006-08-29 06:40:08 51°13.923 2°55.564 338.9 7.1 337 11.2
2006-08-29 06:41:08 51°14.034 2°55.49 339.3 7.4 337 10.9
2006-08-29 06:42:08 51°14.154 2°55.4 335.1 8.4 332 10.8
2006-08-29 06:43:08 51°14.266 2°55.258 317.1 8.8 314 10.7
2006-08-29 06:44:07 51°14.355 2°55.081 310.6 8.8 308 10.9
2006-08-29 06:45:08 51°14.472 2°54.911 330.4 9.3 327 10.5
2006-08-29 06:46:07 51°14.613 2°54.774 334.3 10.9 330 10
2006-08-29 06:47:08 51°14.778 2°54.62 332 11.5 328 9.8
2006-08-29 06:48:08 51°14.942 2°54.464 332.4 11.5 330 9.5
2006-08-29 06:49:08 51°15.105 2°54.313 332.8 11.3 330 9
2006-08-29 06:50:08 51°15.266 2°54.155 332.5 11.3 330 9.6
2006-08-29 06:51:08 51°15.429 2°53.997 333 11.5 328 10.3
2006-08-29 06:52:08 51°15.593 2°53.843 334.3 11.4 329 10.8
2006-08-29 06:53:08 51°15.755 2°53.685 333.4 11.5 330 11.4
2006-08-29 06:54:08 51°15.933 2°53.575 349.4 11.4 346 11.7
2006-08-29 06:55:08 51°16.118 2°53.539 358.5 11.4 354 11.9
2006-08-29 06:56:08 51°16.305 2°53.494 355.2 11.3 351 11.9
2006-08-29 06:57:08 51°16.496 2°53.449 355.6 11.3 352 11.9
2006-08-29 06:58:08 51°16.685 2°53.403 355.2 11.6 351 11.6
2006-08-29 06:59:08 51°16.876 2°53.355 355.3 11.6 352 10.9
2006-08-29 07:00:08 51°17.064 2°53.313 356.8 11.3 355 8.7
2006-08-29 07:01:08 51°17.249 2°53.306 3.9 11.2 -999 9.2
2006-08-29 07:02:08 51°17.438 2°53.344 20.6 11.7 18 9.7
2006-08-29 07:03:08 51°17.618 2°53.458 26.2 11.4 20 10
2006-08-29 07:04:08 51°17.793 2°53.583 29.2 11.6 25 10.2
2006-08-29 07:05:08 51°17.967 2°53.709 29 11.6 27 10.3
2006-08-29 07:06:08 51°18.142 2°53.83 27.6 11.4 22 10.7
2006-08-29 07:07:08 51°18.317 2°53.948 26.7 11.3 24 10.6
2006-08-29 07:08:08 51°18.492 2°54.072 30.2 11.5 26 11.2
2006-08-29 07:09:08 51°18.66 2°54.205 31 11.3 28 11.5
2006-08-29 07:10:08 51°18.83 2°54.337 31.9 11.4 28 11.4
2006-08-29 07:11:07 51°18.993 2°54.487 37 11.6 35 11.9
2006-08-29 07:12:08 51°19.15 2°54.666 42.6 11.3 40 11.8
2006-08-29 07:13:08 51°19.302 2°54.845 41.5 11.4 37 12.4
2006-08-29 07:14:08 51°19.456 2°55.026 41.3 11.6 36 12.3
2006-08-29 07:15:07 51°19.608 2°55.202 40.3 11.3 35 11.8
2006-08-29 07:16:08 51°19.767 2°55.383 40.2 11.6 35 12.7
2006-08-29 07:17:07 51°19.912 2°55.574 44.8 11.5 41 12.6
2006-08-29 07:18:08 51°20.059 2°55.773 45.4 11.3 41 12.4
2006-08-29 07:19:08 51°20.205 2°55.969 44.9 11.6 39 12.9
2006-08-29 07:20:07 51°20.349 2°56.157 42.5 11.2 42 12.8
2006-08-29 07:21:08 51°20.484 2°56.373 51.5 11.2 47 12.7
2006-08-29 07:22:08 51°20.612 2°56.596 52.2 11.3 48 12.6
2006-08-29 07:23:08 51°20.737 2°56.82 54.4 11.1 49 13.1
2006-08-29 07:24:08 51°20.862 2°57.049 54.8 11.5 45 13
2006-08-29 07:25:07 51°20.986 2°57.273 53.7 11.6 48 12.9
2006-08-29 07:26:08 51°21.111 2°57.502 54.1 11.1 50 13.1
2006-08-29 07:27:08 51°21.233 2°57.735 55.3 11.5 50 12.8
2006-08-29 07:28:08 51°21.355 2°57.966 55.6 11.4 54 13.1
2006-08-29 07:29:07 51°21.477 2°58.192 53.4 11.4 47 12.8
2006-08-29 07:30:08 51°21.602 2°58.427 52.2 11.3 48 12.9
2006-08-29 07:31:08 51°21.739 2°58.638 48.1 11.1 48 12.5
2006-08-29 07:32:08 51°21.877 2°58.843 46.3 11.2 43 13
2006-08-29 07:33:08 51°22.015 2°59.051 47.8 11.3 45 12.6
2006-08-29 07:34:08 51°22.155 2°59.256 45.7 11.4 41 12.8
2006-08-29 07:35:08 51°22.3 2°59.453 41.8 11 37 13
2006-08-29 07:36:08 51°22.463 2°59.607 35.5 11.4 29 13.7
2006-08-29 07:37:08 51°22.629 2°59.754 35 11.5 30 13.8
2006-08-29 07:38:08 51°22.77 2°59.872 32 8 26 14
2006-08-29 07:39:08 51°22.879 2°59.951 27.5 5.8 22 15.3
2006-08-29 07:40:08 51°22.95 2°59.987 25.4 3.4 17 15.1
2006-08-29 07:41:08 51°22.991 3°0.013 29 1.9 29 15.2
2006-08-29 07:42:08 51°23.013 3°0.027 26.1 1 19 15.9
2006-08-29 07:43:08 51°23.023 3°0.03 22.7 0.5 181 15.9
2006-08-29 07:44:08 51°23.016 3°0.027 39.6 0.4 200 15.9
2006-08-29 07:45:07 51°23.008 3°0.026 45.9 0.7 164 15.8
2006-08-29 07:46:08 51°23.001 3°0.023 47.8 0.4 201 15.4
2006-08-29 07:47:08 51°22.994 3°0.021 46.2 0.4 175 15.7
2006-08-29 07:48:07 51°22.986 3°0.023 43.9 0.4 197 15.3
2006-08-29 07:49:08 51°22.979 3°0.021 40.8 0.4 194 15.6
2006-08-29 07:50:08 51°22.972 3°0.022 36 0.4 176 15.4
2006-08-29 07:51:08 51°22.967 3°0.022 37 0.3 61 15.7
2006-08-29 07:52:08 51°22.997 3°0.079 66.7 4.9 69 15.4
2006-08-29 07:53:08 51°22.935 3°0.194 164 7.4 171 14.6
2006-08-29 07:54:08 51°22.833 3°0.077 242.4 8.4 244 14
2006-08-29 07:55:08 51°22.781 2°59.852 259 9.2 258 14.5
2006-08-29 07:56:08 51°22.74 2°59.626 246 9 244 14.8
2006-08-29 07:57:08 51°22.701 2°59.411 260.1 6.6 256 15.3
2006-08-29 07:58:08 51°22.684 2°59.316 269.9 1.8 246 15.4
2006-08-29 07:59:08 51°22.673 2°59.319 265.3 0.7 150 15.3
2006-08-29 08:00:08 51°22.668 2°59.331 242 0.7 142 15.2
2006-08-29 08:01:08 51°22.664 2°59.337 217.9 0.3 135 15.2
2006-08-29 08:02:08 51°22.661 2°59.34 199.5 0.2 155 15.1
2006-08-29 08:03:08 51°22.657 2°59.341 185.3 0.3 157 15.1
2006-08-29 08:04:08 51°22.651 2°59.341 180 0.5 193 14.7
2006-08-29 08:05:08 51°22.64 2°59.339 190.9 0.7 192 14.8
2006-08-29 08:06:07 51°22.631 2°59.335 200.9 0.7 189 14.6
2006-08-29 08:07:08 51°22.62 2°59.333 202.8 0.6 201 14.7
2006-08-29 08:08:08 51°22.608 2°59.33 206.8 0.7 192 14.8
2006-08-29 08:09:08 51°22.598 2°59.323 207.5 0.7 202 14.6
2006-08-29 08:10:07 51°22.588 2°59.321 205.2 0.5 182 14.5
2006-08-29 08:11:07 51°22.579 2°59.318 200 0.6 205 14.7
2006-08-29 08:12:08 51°22.566 2°59.313 199.1 1.9 200 14.6
2006-08-29 08:13:07 51°22.515 2°59.234 242.6 6.6 238 14.1
2006-08-29 08:14:08 51°22.477 2°59.052 261.7 6.3 254 14.7
2006-08-29 08:15:08 51°22.461 2°58.931 274.4 3.3 261 14.8
2006-08-29 08:16:09 51°22.451 2°58.914 273.4 1.1 142 -999
2006-08-29 08:17:08 51°22.442 2°58.93 248.9 0.6 118 14.7
2006-08-29 08:18:08 51°22.439 2°58.937 225.9 0.2 133 14.6
2006-08-29 08:19:08 51°22.435 2°58.937 210.3 0.3 211 14.8
2006-08-29 08:20:08 51°22.429 2°58.935 195.2 0.5 193 14.6
2006-08-29 08:21:08 51°22.421 2°58.929 192.6 0.5 184 14.8
2006-08-29 08:22:08 51°22.409 2°58.924 195.9 0.6 198 14.6
2006-08-29 08:23:08 51°22.397 2°58.917 199.3 0.8 193 14.8
2006-08-29 08:24:08 51°22.384 2°58.91 203.3 0.8 210 14.8
2006-08-29 08:25:08 51°22.371 2°58.901 205.3 0.8 207 14.5
2006-08-29 08:26:08 51°22.361 2°58.895 207.6 0.7 183 14.6
2006-08-29 08:27:08 51°22.349 2°58.888 209.7 0.8 206 14.4
2006-08-29 08:28:08 51°22.311 2°58.832 237.9 5 235 14.3
2006-08-29 08:29:07 51°22.287 2°58.692 274.4 5.2 267 14.5
2006-08-29 08:30:08 51°22.278 2°58.59 263.2 2.7 254 14.5
2006-08-29 08:31:08 51°22.266 2°58.576 243.8 0.4 128 14.8
2006-08-29 08:32:07 51°22.262 2°58.58 219.8 0.2 207 14.5
2006-08-29 08:33:08 51°22.259 2°58.58 199.9 0.3 199 14.7
2006-08-29 08:34:08 51°22.253 2°58.576 189.1 0.3 191 14.5
2006-08-29 08:35:08 51°22.244 2°58.572 188.7 0.6 205 14.7
2006-08-29 08:36:08 51°22.234 2°58.566 193.7 0.6 192 14.5
2006-08-29 08:37:08 51°22.223 2°58.562 198.8 0.8 201 14.6
2006-08-29 08:38:08 51°22.211 2°58.553 206.1 0.6 210 14
2006-08-29 08:39:08 51°22.2 2°58.546 209.2 0.7 185 14.2
2006-08-29 08:40:08 51°22.189 2°58.541 205.9 0.8 193 14.4
2006-08-29 08:41:08 51°22.178 2°58.533 205.5 0.9 211 14.3
2006-08-29 08:42:08 51°22.164 2°58.525 206.2 0.9 211 14.1
2006-08-29 08:43:08 51°22.143 2°58.506 219 3 215 13.8
2006-08-29 08:44:08 51°22.106 2°58.403 264.7 5.1 259 13.6
2006-08-29 08:45:08 51°22.102 2°58.291 282 3.4 270 14.1
2006-08-29 08:46:08 51°22.097 2°58.246 279.9 1.1 214 13.7
2006-08-29 08:47:08 51°22.083 2°58.258 254.7 0.7 113 14
2006-08-29 08:48:08 51°22.077 2°58.269 231 0.4 119 13.9
2006-08-29 08:49:08 51°22.074 2°58.269 213.3 0.3 178 13.9
2006-08-29 08:50:08 51°22.067 2°58.267 200.3 0.3 206 13.7
2006-08-29 08:51:08 51°22.058 2°58.262 195.7 0.5 208 13.7
2006-08-29 08:52:08 51°22.049 2°58.258 195.9 0.6 189 13.8
2006-08-29 08:53:08 51°22.039 2°58.254 198.1 0.8 199 13.2
2006-08-29 08:54:08 51°22.029 2°58.249 201.2 0.7 210 13.7
2006-08-29 08:55:08 51°22.015 2°58.239 208 1.9 207 13.6
2006-08-29 08:56:08 51°21.97 2°58.159 242.4 5.1 240 13.6
2006-08-29 08:57:08 51°21.958 2°58.026 282.2 4.9 272 13.7
2006-08-29 08:58:08 51°21.962 2°57.924 286.6 3 273 14.2
2006-08-29 08:59:08 51°21.955 2°57.894 286.6 0.9 171 -999
2006-08-29 09:00:08 51°21.943 2°57.894 279.5 0.5 159 14
2006-08-29 09:01:08 51°21.931 2°57.896 269.5 0.6 163 14.2
2006-08-29 09:02:08 51°21.921 2°57.901 251.4 0.7 149 13.8
2006-08-29 09:03:08 51°21.914 2°57.905 230 0.3 183 13.9
2006-08-29 09:04:08 51°21.908 2°57.905 211.7 0.4 208 13.9
2006-08-29 09:05:08 51°21.901 2°57.9 200.6 0.6 203 13.6
2006-08-29 09:06:08 51°21.891 2°57.892 194.5 0.7 205 13.7
2006-08-29 09:07:08 51°21.881 2°57.884 193.7 0.7 215 13.8
2006-08-29 09:08:08 51°21.87 2°57.876 192.8 0.8 207 13.6
2006-08-29 09:09:08 51°21.857 2°57.868 198.1 0.8 206 13.8
2006-08-29 09:10:08 51°21.843 2°57.86 201.4 0.8 200 13.7
2006-08-29 09:11:08 51°21.829 2°57.852 205.2 0.9 199 13.7
2006-08-29 09:12:08 51°21.802 2°57.827 220.3 3.4 221 13.6
2006-08-29 09:13:08 51°21.768 2°57.741 256.4 3.2 246 13.6
2006-08-29 09:14:08 51°21.758 2°57.653 288.4 3.5 272 13.7
2006-08-29 09:15:08 51°21.77 2°57.583 320.4 2.2 295 13.8
2006-08-29 09:16:08 51°21.777 2°57.551 327.1 0.9 282 14.2
2006-08-29 09:17:08 51°21.773 2°57.533 322.9 0.7 217 14
2006-08-29 09:18:08 51°21.761 2°57.526 338.9 0.8 196 14.1
2006-08-29 09:19:08 51°21.744 2°57.52 1.6 1.1 187 13.9
2006-08-29 09:20:08 51°21.726 2°57.511 29.7 1.2 193 14
2006-08-29 09:21:08 51°21.709 2°57.499 46.9 1.2 205 13.8
2006-08-29 09:22:08 51°21.692 2°57.49 55.8 1.2 191 13.8
2006-08-29 09:23:08 51°21.676 2°57.48 53.6 0.9 214 14
2006-08-29 09:24:07 51°21.66 2°57.468 49.3 1 197 13.9
2006-08-29 09:25:08 51°21.647 2°57.459 43.2 0.9 182 13.6
2006-08-29 09:26:08 51°21.634 2°57.449 34.4 0.7 201 13.6
2006-08-29 09:27:08 51°21.621 2°57.441 32.6 0.9 204 13.9
2006-08-29 09:28:08 51°21.606 2°57.433 32.6 0.9 196 13.7
2006-08-29 09:29:08 51°21.594 2°57.429 29.9 0.1 243 13.6
2006-08-29 09:30:08 51°21.627 2°57.415 346.3 2.8 332 13.7
2006-08-29 09:31:08 51°21.657 2°57.327 294.9 4.5 279 14.2
2006-08-29 09:32:08 51°21.641 2°57.208 264.1 3.9 248 14.1
2006-08-29 09:33:08 51°21.62 2°57.141 268.9 1.7 233 14.2
2006-08-29 09:34:08 51°21.599 2°57.123 250.8 1.3 204 13.9
2006-08-29 09:35:08 51°21.582 2°57.112 227.1 1.1 207 14.2
2006-08-29 09:36:08 51°21.564 2°57.102 208.4 1.2 194 14
2006-08-29 09:37:08 51°21.544 2°57.094 197.8 1.2 199 14.1
2006-08-29 09:38:08 51°21.524 2°57.084 197 1.2 192 13.9
2006-08-29 09:39:08 51°21.503 2°57.073 201.8 1.3 199 13.9
2006-08-29 09:40:08 51°21.482 2°57.061 206 1.4 199 13.8
2006-08-29 09:41:08 51°21.461 2°57.049 208.4 1.3 201 13.8
2006-08-29 09:42:08 51°21.44 2°57.036 211.8 1.4 187 13.5
2006-08-29 09:43:08 51°21.418 2°57.025 212.5 1.3 194 13.7
2006-08-29 09:44:08 51°21.396 2°57.015 209.7 1.5 187 13.5
2006-08-29 09:45:08 51°21.372 2°56.998 213.4 2.3 208 13.5
2006-08-29 09:46:08 51°21.339 2°56.923 272.7 4 254 13.6
2006-08-29 09:47:08 51°21.359 2°56.839 341.9 3.2 322 13.6
2006-08-29 09:48:08 51°21.406 2°56.843 13 2.8 356 14.1
2006-08-29 09:49:08 51°21.441 2°56.803 339.1 2.2 315 14.3
2006-08-29 09:50:08 51°21.45 2°56.776 341 0.7 266 14.2
2006-08-29 09:51:08 51°21.443 2°56.766 356.1 0.8 197 14
2006-08-29 09:52:08 51°21.425 2°56.76 23.9 1.3 192 14.2
2006-08-29 09:53:08 51°21.406 2°56.751 40 1.3 191 14.2
2006-08-29 09:54:08 51°21.386 2°56.743 47.1 1.3 189 14
2006-08-29 09:55:08 51°21.366 2°56.733 49.8 1.2 204 13.9
2006-08-29 09:56:08 51°21.347 2°56.725 47.4 1.3 194 14
2006-08-29 09:57:08 51°21.328 2°56.717 40.9 1.1 192 13.8
2006-08-29 09:58:07 51°21.31 2°56.709 36.6 1.2 191 14
2006-08-29 09:59:08 51°21.291 2°56.701 33.4 1.2 192 13.7
2006-08-29 10:00:08 51°21.274 2°56.694 34.6 1 198 13.7
2006-08-29 10:01:08 51°21.257 2°56.686 34 1.1 200 13.7
2006-08-29 10:02:08 51°21.239 2°56.676 33.6 1.2 200 13.5
2006-08-29 10:03:08 51°21.218 2°56.667 41.3 1.3 193 13.5
2006-08-29 10:04:08 51°21.197 2°56.655 47.4 1.4 201 13.4
2006-08-29 10:05:08 51°21.174 2°56.64 52.8 1.3 211 13.3
2006-08-29 10:06:08 51°21.153 2°56.625 50.8 1.5 196 13.5
2006-08-29 10:07:08 51°21.132 2°56.613 47.6 1.3 190 13.5
2006-08-29 10:08:08 51°21.113 2°56.6 40.6 1.3 201 13.2
2006-08-29 10:09:08 51°21.093 2°56.587 38.1 1.2 197 12.9
2006-08-29 10:10:08 51°21.072 2°56.573 39.1 1.4 206 13.4
2006-08-29 10:11:08 51°21.05 2°56.558 42.8 1.4 205 13.2
2006-08-29 10:12:08 51°21.027 2°56.542 45.9 1.4 201 13.2
2006-08-29 10:13:08 51°21.006 2°56.528 46.9 1.5 200 13.1
2006-08-29 10:14:08 51°20.984 2°56.514 46.1 1.4 206 13
2006-08-29 10:15:08 51°20.963 2°56.499 42.8 1.3 206 13.1
2006-08-29 10:16:08 51°20.944 2°56.485 38.5 1.3 201 13.1
2006-08-29 10:17:08 51°20.925 2°56.471 33.3 1.3 209 13
2006-08-29 10:18:08 51°20.904 2°56.456 32.5 1.4 207 12.6
2006-08-29 10:19:08 51°20.883 2°56.442 36.9 1.5 199 13.1
2006-08-29 10:20:08 51°20.862 2°56.426 41.3 1.1 205 12.7
2006-08-29 10:21:08 51°20.859 2°56.422 23.3 0.5 351 12.8
2006-08-29 10:22:08 51°20.891 2°56.406 357.2 3.1 344 13.1
2006-08-29 10:23:08 51°20.946 2°56.39 4.2 3.6 349 13.5
2006-08-29 10:24:08 51°21.005 2°56.372 1.4 3.3 344 13.4
2006-08-29 10:25:08 51°21.051 2°56.357 6.4 2.7 355 13.8
2006-08-29 10:26:08 51°21.086 2°56.351 8.6 2.1 351 13.7
2006-08-29 10:27:08 51°21.123 2°56.351 13.8 2.5 5 14
2006-08-29 10:28:08 51°21.172 2°56.358 14.6 3 6 14.2
2006-08-29 10:29:08 51°21.215 2°56.357 7.8 2.3 350 14.5
2006-08-29 10:30:08 51°21.241 2°56.347 8.4 1 339 14.6
2006-08-29 10:31:08 51°21.25 2°56.336 9.8 0.3 321 14.5
2006-08-29 10:32:08 51°21.248 2°56.325 8.1 0.7 226 14.7
2006-08-29 10:33:08 51°21.236 2°56.312 11.6 1 219 14.3
2006-08-29 10:34:08 51°21.221 2°56.299 15.9 1 194 14.7
2006-08-29 10:35:08 51°21.199 2°56.287 27.5 1.4 201 14.6
2006-08-29 10:36:08 51°21.176 2°56.274 37.7 1.5 200 14.3
2006-08-29 10:37:08 51°21.153 2°56.261 41.5 1.4 205 14.3
2006-08-29 10:38:08 51°21.13 2°56.249 43.5 1.6 192 14.3
2006-08-29 10:39:08 51°21.106 2°56.235 44.6 1.5 204 14.2
2006-08-29 10:40:08 51°21.084 2°56.22 43.8 1.5 200 14.4
2006-08-29 10:41:08 51°21.06 2°56.206 42.8 1.5 206 14.1
2006-08-29 10:42:08 51°21.038 2°56.192 41.9 1.6 196 14.3
2006-08-29 10:43:08 51°21.016 2°56.177 40.7 1.5 208 14
2006-08-29 10:44:08 51°20.993 2°56.163 42.1 1.4 204 13.9
2006-08-29 10:45:08 51°20.971 2°56.148 38.8 1.4 199 13.9
2006-08-29 10:46:08 51°20.949 2°56.135 37.7 1.4 202 13.8
2006-08-29 10:47:08 51°20.928 2°56.12 37.4 1.5 204 13.6
2006-08-29 10:48:08 51°20.905 2°56.108 43.1 1.4 202 14
2006-08-29 10:49:08 51°20.885 2°56.098 38.7 0.3 151 13.6
2006-08-29 10:50:08 51°20.916 2°56.082 345.8 3.5 326 14
2006-08-29 10:51:08 51°20.98 2°56.016 349.1 4.9 337 14
2006-08-29 10:52:08 51°21.048 2°55.937 328 4.4 309 14.6
2006-08-29 10:53:08 51°21.064 2°55.879 335.4 1.1 239 14.7
2006-08-29 10:54:09 51°21.043 2°55.862 14.3 1.5 208 -999
2006-08-29 10:55:08 51°21.021 2°55.847 33.2 1.5 201 14.7
2006-08-29 10:56:08 51°20.999 2°55.83 45.1 1.4 195 14.7
2006-08-29 10:57:08 51°20.978 2°55.816 49.3 1.4 200 14.6
2006-08-29 10:58:08 51°20.957 2°55.803 45 1.4 202 14.7
2006-08-29 10:59:08 51°20.936 2°55.787 38.8 1.4 202 14.5
2006-08-29 11:00:08 51°20.914 2°55.773 34.8 1.4 203 14.6
2006-08-29 11:01:08 51°20.892 2°55.758 33 1.4 207 14.3
2006-08-29 11:02:08 51°20.868 2°55.743 35.2 1.4 196 14.3
2006-08-29 11:03:08 51°20.846 2°55.73 36.1 1 183 14.2
2006-08-29 11:04:08 51°20.855 2°55.723 1 1.8 336 14.5
2006-08-29 11:05:08 51°20.884 2°55.667 327.4 3.5 302 14.4
2006-08-29 11:06:08 51°20.891 2°55.562 286.2 4 264 14.8
2006-08-29 11:07:08 51°20.874 2°55.497 286.9 1.8 216 15
2006-08-29 11:08:09 51°20.851 2°55.466 283.2 2 222 -999
2006-08-29 11:09:08 51°20.827 2°55.44 267.5 1.8 206 14.9
2006-08-29 11:10:08 51°20.804 2°55.425 245.1 1.3 204 14.8
2006-08-29 11:11:08 51°20.78 2°55.407 227.6 2 209 14.5
2006-08-29 11:12:08 51°20.751 2°55.385 220.4 1.8 204 14.7
2006-08-29 11:13:08 51°20.726 2°55.368 212.5 1.6 194 14.8
2006-08-29 11:14:08 51°20.7 2°55.353 202.7 1.6 199 14.5
2006-08-29 11:15:08 51°20.675 2°55.339 197.4 1.5 198 14.6
2006-08-29 11:16:08 51°20.647 2°55.327 197.8 1.7 199 14.6
2006-08-29 11:17:08 51°20.621 2°55.312 204.5 1.8 202 14.3
2006-08-29 11:18:08 51°20.595 2°55.294 208.6 1.6 204 14
2006-08-29 11:19:09 51°20.569 2°55.276 206.4 1.7 205 14.4
2006-08-29 11:20:08 51°20.545 2°55.259 204.7 1.6 205 13.9
2006-08-29 11:21:08 51°20.504 2°55.223 223.8 4.4 219 14.1
2006-08-29 11:22:08 51°20.467 2°55.097 280 5.6 266 14.1
2006-08-29 11:23:08 51°20.504 2°54.99 347.3 4.3 334 14.5
2006-08-29 11:24:08 51°20.569 2°54.992 20.4 4.3 9 14.8
2006-08-29 11:25:08 51°20.622 2°55.006 20.4 2.9 13 14.8
2006-08-29 11:26:08 51°20.664 2°55.032 31.7 2.7 21 14.9
2006-08-29 11:27:08 51°20.687 2°55.044 25.3 0.4 358 15.2
2006-08-29 11:28:08 51°20.681 2°55.033 12.4 0.8 216 15.1
2006-08-29 11:29:08 51°20.668 2°55.019 9.6 1 204 15.1
2006-08-29 11:30:08 51°20.651 2°55.008 13.5 1.3 199 15.2
2006-08-29 11:31:08 51°20.629 2°54.996 22.5 1.5 199 15.2
2006-08-29 11:32:08 51°20.606 2°54.984 34.8 1.3 201 14.9
2006-08-29 11:33:08 51°20.584 2°54.97 40.8 1.6 201 14.8
2006-08-29 11:34:08 51°20.561 2°54.955 48.3 1.5 211 14.6
2006-08-29 11:35:08 51°20.538 2°54.94 48.6 1.5 200 14.8
2006-08-29 11:36:08 51°20.517 2°54.925 46.4 1.4 193 14.4
2006-08-29 11:37:08 51°20.494 2°54.913 44.1 1.4 203 14.7
2006-08-29 11:38:08 51°20.493 2°54.909 11 0.9 349 15.1
2006-08-29 11:39:08 51°20.512 2°54.867 319.8 2.7 292 14.9
2006-08-29 11:40:08 51°20.52 2°54.769 297.5 3.8 269 15.1
2006-08-29 11:41:08 51°20.513 2°54.701 310.2 1.8 239 15.5
2006-08-29 11:42:09 51°20.484 2°54.688 338.9 2 194 15.3
2006-08-29 11:43:08 51°20.453 2°54.678 355.2 2 190 15.1
2006-08-29 11:44:08 51°20.42 2°54.665 14 2 199 15.1
2006-08-29 11:45:08 51°20.39 2°54.648 31.9 1.9 200 15
2006-08-29 11:46:08 51°20.362 2°54.628 43.6 1.8 208 14.8
2006-08-29 11:47:08 51°20.335 2°54.611 54.3 1.8 199 14.7
2006-08-29 11:48:08 51°20.309 2°54.596 56.8 1.6 204 14.6
2006-08-29 11:49:08 51°20.286 2°54.583 55.2 1.5 200 14.1
2006-08-29 11:50:08 51°20.265 2°54.57 47.5 1.5 197 14.7
2006-08-29 11:51:08 51°20.244 2°54.558 41.9 1.3 208 14.5
2006-08-29 11:52:08 51°20.224 2°54.548 35.6 1.3 201 14.5
2006-08-29 11:53:08 51°20.203 2°54.537 35.3 1.4 198 14.3
2006-08-29 11:54:08 51°20.188 2°54.53 27 0.2 100 14.4
2006-08-29 11:55:08 51°20.21 2°54.515 343.6 2.5 321 14.4
2006-08-29 11:56:08 51°20.258 2°54.455 337.9 4.2 320 14.8
2006-08-29 11:57:07 51°20.301 2°54.387 336.3 2.7 310 15.1
2006-08-29 11:58:08 51°20.328 2°54.342 347.7 1.6 312 15.4
2006-08-29 11:59:08 51°20.344 2°54.315 351.8 1.4 312 15.6
2006-08-29 12:00:08 51°20.343 2°54.291 346.3 0.9 252 15.7
2006-08-29 12:01:08 51°20.328 2°54.273 347.6 1.2 213 15.5
2006-08-29 12:02:08 51°20.308 2°54.264 4.4 1.4 194 15.6
2006-08-29 12:03:08 51°20.285 2°54.252 24.2 1.5 199 15.5
2006-08-29 12:04:07 51°20.26 2°54.241 38.2 1.6 195 15.1
2006-08-29 12:05:09 51°20.235 2°54.227 45.4 1.5 197 15.2
2006-08-29 12:06:08 51°20.211 2°54.215 46 1.5 207 15.1
2006-08-29 12:07:08 51°20.187 2°54.202 43.6 1.3 195 15
2006-08-29 12:08:08 51°20.166 2°54.192 37.1 1.4 193 14.9
2006-08-29 12:09:09 51°20.144 2°54.181 34.1 1.3 194 15.1
2006-08-29 12:10:07 51°20.123 2°54.173 29.8 1.3 192 14.6
2006-08-29 12:11:08 51°20.102 2°54.161 28.6 1.3 201 14.5
2006-08-29 12:12:07 51°20.08 2°54.154 31.9 1.4 195 14.4
2006-08-29 12:13:08 51°20.057 2°54.146 34.5 1.4 196 14.6
2006-08-29 12:14:08 51°20.071 2°54.144 357.5 2.3 342 14.8
2006-08-29 12:15:08 51°20.109 2°54.071 317.5 4.5 300 15.2
2006-08-29 12:16:08 51°20.15 2°54.001 347.1 2.5 324 15.5
2006-08-29 12:17:08 51°20.17 2°53.955 327.8 1.8 281 15.6
2006-08-29 12:18:08 51°20.164 2°53.926 324.8 1.1 236 15.8
2006-08-29 12:19:07 51°20.15 2°53.909 333.4 1.1 199 15.8
2006-08-29 12:20:08 51°20.129 2°53.899 357.3 1.5 196 15.7
2006-08-29 12:21:08 51°20.103 2°53.888 19.9 1.6 198 15.4
2006-08-29 12:22:08 51°20.077 2°53.875 35.5 1.6 200 15.4
2006-08-29 12:23:09 51°20.052 2°53.863 42.1 1.5 197 15.5
2006-08-29 12:24:08 51°20.028 2°53.853 39.8 1.5 194 15.3
2006-08-29 12:25:09 51°20.005 2°53.844 32.4 1.5 195 15
2006-08-29 12:26:07 51°19.983 2°53.835 27.8 1.4 189 15
2006-08-29 12:27:08 51°19.961 2°53.827 26.5 1.3 197 14.8
2006-08-29 12:28:08 51°19.94 2°53.821 29.1 1.2 186 15
2006-08-29 12:29:08 51°19.92 2°53.815 28.5 0.7 161 14.7
2006-08-29 12:30:08 51°19.941 2°53.81 350.6 2.4 333 15.1
2006-08-29 12:31:09 51°19.974 2°53.738 307 4.2 286 15.4
2006-08-29 12:32:08 51°19.992 2°53.622 308.7 4.7 289 15.8
2006-08-29 12:33:08 51°20.008 2°53.525 305.3 2.4 272 15.8
2006-08-29 12:34:08 51°19.998 2°53.491 323.9 1.1 228 15.9
2006-08-29 12:35:08 51°19.983 2°53.479 353.5 1 189 16
2006-08-29 12:36:08 51°19.964 2°53.472 18.8 1.4 193 15.7
2006-08-29 12:37:08 51°19.943 2°53.462 39.1 1.3 191 15.8
2006-08-29 12:38:08 51°19.921 2°53.456 48 1.4 191 15.7
2006-08-29 12:39:08 51°19.901 2°53.451 42.8 1.3 189 15.7
2006-08-29 12:40:08 51°19.882 2°53.446 37.2 1.2 192 15.3
2006-08-29 12:41:08 51°19.861 2°53.438 32.1 1.3 195 15.7
2006-08-29 12:42:08 51°19.84 2°53.432 28.4 1.2 200 15.4
2006-08-29 12:43:08 51°19.821 2°53.427 27.4 1.2 187 15.5
2006-08-29 12:44:08 51°19.799 2°53.423 30.6 1.4 185 15.3
2006-08-29 12:45:08 51°19.776 2°53.415 30.2 1.4 191 15.3
2006-08-29 12:46:09 51°19.753 2°53.41 34.7 1.4 183 15
2006-08-29 12:47:08 51°19.731 2°53.406 38.4 1.2 186 15.2
2006-08-29 12:48:08 51°19.738 2°53.411 5.1 1.4 355 15
2006-08-29 12:49:08 51°19.769 2°53.362 319.6 3.6 302 15.4
2006-08-29 12:50:09 51°19.785 2°53.25 301.3 3.7 281 15.8
2006-08-29 12:51:08 51°19.798 2°53.194 337.2 1.5 301 15.9
2006-08-29 12:52:08 51°19.807 2°53.169 336.2 1.3 304 16
2006-08-29 12:53:09 51°19.815 2°53.139 331.6 0.7 245 16
2006-08-29 12:54:08 51°19.806 2°53.129 344.6 0.8 198 16.1
2006-08-29 12:55:08 51°19.79 2°53.127 6.4 1 175 16
2006-08-29 12:56:08 51°19.772 2°53.126 26.4 1.2 184 16
2006-08-29 12:57:08 51°19.751 2°53.126 37.6 1.2 184 15.7
2006-08-29 12:58:08 51°19.731 2°53.124 40.4 1.2 180 16.1
2006-08-29 12:59:08 51°19.711 2°53.123 39.4 1.2 185 15.5
2006-08-29 13:00:08 51°19.69 2°53.122 37.4 1.5 188 15.7
2006-08-29 13:01:08 51°19.669 2°53.119 40.5 1.2 189 15.8
2006-08-29 13:02:09 51°19.648 2°53.117 38.6 1.2 189 15.6
2006-08-29 13:03:08 51°19.628 2°53.115 36.7 1.3 181 15.4
2006-08-29 13:04:08 51°19.607 2°53.113 36.5 1.2 180 15.4
2006-08-29 13:05:09 51°19.607 2°53.123 13.4 1.3 7 15.6
2006-08-29 13:06:08 51°19.638 2°53.093 326.6 3.5 310 15.7
2006-08-29 13:07:08 51°19.665 2°52.972 302.3 5.2 290 16.1
2006-08-29 13:08:08 51°19.695 2°52.874 319 3.2 298 16.5
2006-08-29 13:09:08 51°19.711 2°52.815 314.9 2 286 16.5
2006-08-29 13:10:08 51°19.706 2°52.785 288.2 1 170 16.5
2006-08-29 13:11:09 51°19.689 2°52.791 280.2 1.1 166 16.4
2006-08-29 13:12:08 51°19.671 2°52.792 260.2 1.1 169 16.5
2006-08-29 13:13:08 51°19.654 2°52.805 236.6 1 148 16.8
2006-08-29 13:14:08 51°19.641 2°52.817 219 0.8 160 16.5
2006-08-29 13:15:08 51°19.629 2°52.823 204.5 0.8 175 16.4
2006-08-29 13:16:08 51°19.614 2°52.827 198.8 0.9 175 16.2
2006-08-29 13:17:08 51°19.598 2°52.831 197.3 0.9 175 16.2
2006-08-29 13:18:08 51°19.581 2°52.838 193.2 1 166 16.1
2006-08-29 13:19:08 51°19.563 2°52.845 191 1.2 164 16
2006-08-29 13:20:08 51°19.546 2°52.853 191.5 1.2 166 16
2006-08-29 13:21:08 51°19.528 2°52.86 195.5 1.3 169 16
2006-08-29 13:22:08 51°19.509 2°52.865 202.8 1.1 168 15.9
2006-08-29 13:23:08 51°19.491 2°52.871 206.7 1.2 162 15.8
2006-08-29 13:24:08 51°19.472 2°52.877 209.3 1.2 164 15.8
2006-08-29 13:25:08 51°19.454 2°52.885 209.9 1.1 162 15.8
2006-08-29 13:26:08 51°19.437 2°52.895 210.3 1.1 155 15.6
2006-08-29 13:27:08 51°19.421 2°52.907 206.3 1.1 145 15.4
2006-08-29 13:28:09 51°19.405 2°52.92 200.2 1 153 15.7
2006-08-29 13:29:09 51°19.39 2°52.933 199.3 1 146 15.6
2006-08-29 13:30:08 51°19.364 2°52.943 185.8 3 179 15.3
2006-08-29 13:31:08 51°19.275 2°52.933 188.8 7 186 15.1
2006-08-29 13:32:08 51°19.118 2°52.887 195.2 11.4 194 14.3
2006-08-29 13:33:08 51°18.925 2°52.812 197.4 11.9 195 13.9
2006-08-29 13:34:08 51°18.73 2°52.735 196.6 12 195 13.4
2006-08-29 13:35:08 51°18.539 2°52.647 198.1 12 196 13
2006-08-29 13:36:08 51°18.346 2°52.564 197.3 12.1 197 12.8
2006-08-29 13:37:08 51°18.153 2°52.484 195.9 12.2 194 12.5
2006-08-29 13:38:08 51°17.96 2°52.405 196.5 12 195 12.4
2006-08-29 13:39:08 51°17.767 2°52.321 195.3 12.3 192 12.3
2006-08-29 13:40:08 51°17.57 2°52.324 172.6 12.1 171 12.3
2006-08-29 13:41:09 51°17.374 2°52.402 166.3 12 165 12.2
2006-08-29 13:42:08 51°17.19 2°52.506 161.2 11.9 161 11.8
2006-08-29 13:43:09 51°17.001 2°52.625 161.8 11.8 161 12
2006-08-29 13:44:08 51°16.817 2°52.725 161.5 11.8 161 11.7
2006-08-29 13:45:08 51°16.631 2°52.83 166.1 11.8 164 13.2
2006-08-29 13:46:08 51°16.439 2°52.928 165 12 162 13.8
2006-08-29 13:47:08 51°16.25 2°53.03 165.4 11.8 163 13.9
2006-08-29 13:48:08 51°16.059 2°53.135 164.4 12 161 13.8
2006-08-29 13:49:08 51°15.874 2°53.24 164.7 12 160 13.6
2006-08-29 13:50:08 51°15.688 2°53.342 164.8 11.7 162 13
2006-08-29 13:51:08 51°15.507 2°53.448 164.3 11.6 158 12.6
2006-08-29 13:52:09 51°15.321 2°53.554 165.1 11.7 160 12.3
2006-08-29 13:53:08 51°15.144 2°53.68 161 11.8 157 11.7
2006-08-29 13:54:09 51°14.967 2°53.829 155.3 11.6 151 11.2
2006-08-29 13:55:08 51°14.829 2°54.045 129.4 12.2 126 11.7
2006-08-29 13:56:08 51°14.712 2°54.309 129.3 12.3 123 12.1
2006-08-29 13:57:08 51°14.595 2°54.575 133 12.5 122 12.1
2006-08-29 13:58:08 51°14.475 2°54.842 133.6 12.6 125 12.4
2006-08-29 13:59:08 51°14.357 2°55.109 130.6 11.8 125 12.9
2006-08-29 14:00:08 51°14.238 2°55.309 135.9 9.4 136 12.6
2006-08-29 14:01:08 51°14.118 2°55.423 155.8 8.1 155 12.6
2006-08-29 14:02:08 51°13.995 2°55.511 156.6 8.1 155 12.7
2006-08-29 14:03:08 51°13.872 2°55.6 156.2 8.1 155 12.7
2006-08-29 14:04:08 51°13.771 2°55.693 143.2 6.5 141 12.4
2006-08-29 14:05:08 51°13.7 2°55.801 133.5 5.1 133 13.4
2006-08-29 14:06:08 51°13.655 2°55.893 126 3.8 125 12
2006-08-29 14:07:08 51°13.626 2°55.969 120.5 2.9 118 11.9
2006-08-29 14:08:58 51°13.604 2°56.072 105.1 1 114 10.7
2006-08-29 14:09:58 51°13.6 2°56.086 114 0.7 113 10.2